Aeroporto :
LOGIN :

Iscrizione | Disclaimer

   EN    FR    IT 

 










Sommario :    VFR   VFR Marginale   IFR   IFR Intensivo   IFR Molto Intensivo
Visibilità : 
Base nubi : 
>= 8 km
>= 3000ft
5 / 8 km
1000 / 3000 ft
1500m / 5 km
500 / 1000 ft
800 / 1500m
200 / 500 ft
< 800m
< 200 ft
Simboli :   Temporali  Nebbia  Neve Forte  Precipitazioni Forti  Vento > 20 kt
SIGMETs :   Varie  Temporali  Ghiacco  Turbolenza  Onda orograficha  Ceneri Vulcaniche






- Altitudine del aeroporto : 82 ft
- Codice IATA : ALG


DAAG - Alger Houari Boumedienne

ULTIMO METAR :
  • 191700Z 12002KT 9999 FEW026 BKN100 14/10 Q1012

METARs OBSOLETI :
  • 191630Z 28003KT 9999 FEW026 BKN100 15/10 Q1012
  • 191600Z 28005KT 9999 FEW026 BKN100 15/10 Q1012
  • 191530Z 29010KT 9999 SCT026 SCT040 16/10 Q1012
  • 191500Z 28004KT 9999 SCT026 SCT040 17/11 Q1012
  • 191430Z VRB02KT 9999 SCT026 SCT040 17/11 Q1012

TAF TAF DAAG
Valido dal 19 a 12 ore il 20 a 12 ore UTC


191100Z 1912/2012 08006KT 9999 SCT020 BKN040
TEMPO 1912/1917 5000 -RA FEW023TCU FEW026CB
PROB30
TEMPO 1913/1915 3000 -TSRA FEW023CB
BECMG 1915/1918 22010KT
BECMG 1922/1924 16010KT
BECMG 2005/2007 08010KT
PROB30
TEMPO 2006/2012 FEW023CB



MetMap, La meteo Aeronautica in un colpo d'occhio ! - Copyright ORBIFLY Dicembre 2007 - Disclaimer

ORBIFLY MET'MAP TEAM :

Programmazione e sviluppo : Alexandra Zaïnal
Concezione : Baudouin d'Aumeries
Aiuto per la programmazione : Marc-Olivier Méhu
Supporto tecnico e logistico : Manuel Goepfert
Aiuto per la traduzione : Arnaldo La Scala

Contatto : metmap@orbifly.com




FONTI E CREDITI :

   NOAA